KCRX/CRX METAR and TAF weather

Enter ICAO airport designator
Station Type Date Time Source
KCRX METAR 2021/02/27 03:35 UTC NOAA

KCRX 270335Z AUTO 16010KT 10SM OVC070 14/13 A2992 RMK AO2


Station Type Date Time Source
KCRX Decoded METAR 2021/02/27 03:35 UTC NOAA

Station name not available
Feb 26, 2021 - 10:35 PM EST / 2021.02.27 0335 UTC
Wind: from the SSE (160 degrees) at 12 MPH (10 KT):0
Visibility: 10 mile(s):0
Sky conditions: overcast
Temperature: 57 F (14 C)
Dew Point: 55 F (13 C)
Relative Humidity: 93%
Pressure (altimeter): 29.92 in. Hg (1013 hPa)
ob: KCRX 270335Z AUTO 16010KT 10SM OVC070 14/13 A2992 RMK AO2
cycle: 3

Station Type Date Time Source
KCRX TAF UTC NOAA

Error!

Example: see airport list